createdAt,value
2018-06-18T00:00:17.859Z,19.14
2018-06-18T00:01:17.789Z,19.15
2018-06-18T00:02:17.791Z,19.12
2018-06-18T00:03:18.059Z,19.18
2018-06-18T00:04:18.049Z,19.12
2018-06-18T00:05:18.066Z,19.16
2018-06-18T00:06:18.020Z,19.09
2018-06-18T00:07:18.035Z,19.14
2018-06-18T00:08:17.787Z,19.14
2018-06-18T00:09:18.039Z,19.12
2018-06-18T00:10:18.073Z,19.16
2018-06-18T00:11:17.536Z,19.14
2018-06-18T00:12:17.779Z,19.22
2018-06-18T00:13:17.537Z,19.15
2018-06-18T00:14:18.073Z,19.18
2018-06-18T00:15:18.062Z,19.12
2018-06-18T00:16:17.539Z,19.14
2018-06-18T00:17:17.529Z,19.14
2018-06-18T00:18:17.790Z,19.12
2018-06-18T00:19:17.541Z,19.16
2018-06-18T00:20:18.073Z,19.07
2018-06-18T00:21:17.794Z,19.16
2018-06-18T00:22:17.792Z,19.12
2018-06-18T00:23:18.054Z,19.12
2018-06-18T00:24:18.051Z,19.14
2018-06-18T00:25:18.093Z,19.12
2018-06-18T00:26:17.798Z,19.15
2018-06-18T00:27:18.052Z,19.18
2018-06-18T00:28:17.796Z,19.21
2018-06-18T00:29:17.809Z,19.16
2018-06-18T00:30:17.551Z,19.14
2018-06-18T00:31:17.816Z,19.18
2018-06-18T00:32:18.057Z,19.16
2018-06-18T00:33:17.827Z,19.12
2018-06-18T00:34:17.815Z,19.07
2018-06-18T00:35:17.884Z,19.08
2018-06-18T00:36:17.825Z,19.04
2018-06-18T00:37:17.833Z,19.12
2018-06-18T00:38:18.067Z,19.09
2018-06-18T00:39:17.861Z,19.07
2018-06-18T00:40:17.598Z,19.08
2018-06-18T00:41:17.828Z,19.07
2018-06-18T00:42:18.070Z,19.02
2018-06-18T00:43:18.074Z,19.02
2018-06-18T00:44:17.817Z,19.14
2018-06-18T00:45:17.833Z,19.11
2018-06-18T00:46:18.069Z,19.14
2018-06-18T00:47:18.078Z,19.18
2018-06-18T00:48:18.072Z,19.04
2018-06-18T00:49:17.583Z,19.14
2018-06-18T00:50:18.129Z,19.16
2018-06-18T00:51:18.130Z,19.15
2018-06-18T00:52:17.825Z,19.12
2018-06-18T00:53:17.826Z,19.04
2018-06-18T00:54:18.085Z,19.09
2018-06-18T00:55:17.833Z,19
2018-06-18T00:56:18.096Z,19.07
2018-06-18T00:57:22.647Z,19.02
2018-06-18T00:58:17.832Z,18.95
2018-06-18T00:59:18.085Z,18.98
2018-06-18T01:00:18.131Z,18.95
2018-06-18T01:01:17.841Z,18.96
2018-06-18T01:02:17.875Z,18.96
2018-06-18T01:03:18.090Z,18.93
2018-06-18T01:04:17.863Z,18.9
2018-06-18T01:05:17.847Z,18.96
2018-06-18T01:06:17.596Z,18.93
2018-06-18T01:07:18.123Z,18.98
2018-06-18T01:08:18.107Z,18.95
2018-06-18T01:09:17.848Z,18.96
2018-06-18T01:10:17.924Z,18.98
2018-06-18T01:11:18.104Z,18.99
2018-06-18T01:12:17.860Z,19.02
2018-06-18T01:13:18.105Z,18.96
2018-06-18T01:14:17.859Z,18.99
2018-06-18T01:15:18.110Z,18.96
2018-06-18T01:16:18.110Z,18.93
2018-06-18T01:17:17.850Z,18.93
2018-06-18T01:18:18.253Z,18.96
2018-06-18T01:19:17.866Z,18.92
2018-06-18T01:20:17.924Z,18.96
2018-06-18T01:21:17.608Z,18.9
2018-06-18T01:22:18.119Z,18.96
2018-06-18T01:23:17.871Z,18.95
2018-06-18T01:24:17.613Z,18.99
2018-06-18T01:25:18.121Z,19
2018-06-18T01:26:18.129Z,18.89
2018-06-18T01:27:17.614Z,18.96
2018-06-18T01:28:18.121Z,18.95
2018-06-18T01:29:17.873Z,18.93
2018-06-18T01:30:17.893Z,18.92
2018-06-18T01:31:17.871Z,18.88
2018-06-18T01:32:18.140Z,18.84
2018-06-18T01:33:18.126Z,18.84
2018-06-18T01:34:17.873Z,18.83
2018-06-18T01:35:18.151Z,18.88
2018-06-18T01:36:18.130Z,18.89
2018-06-18T01:37:17.878Z,18.89
2018-06-18T01:38:17.634Z,18.78
2018-06-18T01:39:18.136Z,18.89
2018-06-18T01:40:18.131Z,18.86
2018-06-18T01:41:17.884Z,18.81
2018-06-18T01:42:17.897Z,18.83
2018-06-18T01:43:17.630Z,18.83
2018-06-18T01:44:18.155Z,18.81
2018-06-18T01:45:18.136Z,18.93
2018-06-18T01:46:18.136Z,18.96
2018-06-18T01:47:17.904Z,18.95
2018-06-18T01:48:17.899Z,18.92
2018-06-18T01:49:18.153Z,18.81
2018-06-18T01:50:17.657Z,18.84
2018-06-18T01:51:18.152Z,18.86
2018-06-18T01:52:17.644Z,18.81
2018-06-18T01:53:18.145Z,18.84
2018-06-18T01:54:17.907Z,18.81
2018-06-18T01:55:18.199Z,18.88
2018-06-18T01:56:18.147Z,18.9
2018-06-18T01:57:17.660Z,18.89
2018-06-18T01:58:18.850Z,18.81
2018-06-18T01:59:17.908Z,18.81
2018-06-18T02:00:18.233Z,18.77
2018-06-18T02:01:18.153Z,18.71
2018-06-18T02:02:18.191Z,18.7
2018-06-18T02:03:17.908Z,18.75
2018-06-18T02:04:17.908Z,18.78
2018-06-18T02:05:17.933Z,18.8
2018-06-18T02:06:18.161Z,18.7
2018-06-18T02:07:17.931Z,18.8
2018-06-18T02:08:17.924Z,18.71
2018-06-18T02:09:17.925Z,18.81
2018-06-18T02:10:18.255Z,18.68
2018-06-18T02:11:17.921Z,18.81
2018-06-18T02:12:18.168Z,18.8
2018-06-18T02:13:18.165Z,18.74
2018-06-18T02:14:17.678Z,18.71
2018-06-18T02:15:17.924Z,18.74
2018-06-18T02:16:17.712Z,18.75
2018-06-18T02:17:17.918Z,18.71
2018-06-18T02:18:18.176Z,18.75
2018-06-18T02:19:18.169Z,18.74
2018-06-18T02:20:17.931Z,18.75
2018-06-18T02:21:17.925Z,18.73
2018-06-18T02:22:18.183Z,18.74
2018-06-18T02:23:18.191Z,18.78
2018-06-18T02:24:17.934Z,18.73
2018-06-18T02:25:18.193Z,18.73
2018-06-18T02:26:17.930Z,18.74
2018-06-18T02:27:17.989Z,18.73
2018-06-18T02:28:18.443Z,18.74
2018-06-18T02:29:17.680Z,18.75
2018-06-18T02:30:18.199Z,18.75
2018-06-18T02:31:18.233Z,18.66
2018-06-18T02:32:18.192Z,18.71
2018-06-18T02:33:18.202Z,18.71
2018-06-18T02:34:17.972Z,18.66
2018-06-18T02:35:18.252Z,18.73
2018-06-18T02:36:18.204Z,18.71
2018-06-18T02:37:18.214Z,18.75
2018-06-18T02:38:18.206Z,18.73
2018-06-18T02:39:18.210Z,18.71
2018-06-18T02:40:17.993Z,18.63
2018-06-18T02:41:18.200Z,18.65
2018-06-18T02:42:17.949Z,18.59
2018-06-18T02:43:17.967Z,18.62
2018-06-18T02:44:18.203Z,18.58
2018-06-18T02:45:18.250Z,18.63
2018-06-18T02:46:18.206Z,18.59
2018-06-18T02:47:17.956Z,18.73
2018-06-18T02:48:18.210Z,18.66
2018-06-18T02:49:17.717Z,18.55
2018-06-18T02:50:18.276Z,18.55
2018-06-18T02:51:18.210Z,18.55
2018-06-18T02:52:17.716Z,18.5
2018-06-18T02:53:18.215Z,18.53
2018-06-18T02:54:18.290Z,18.56
2018-06-18T02:55:18.226Z,18.55
2018-06-18T02:56:18.226Z,18.52
2018-06-18T02:57:18.216Z,18.52
2018-06-18T02:58:17.965Z,18.56
2018-06-18T02:59:18.217Z,18.56
2018-06-18T03:00:18.057Z,18.43
2018-06-18T03:01:18.212Z,18.59
2018-06-18T03:02:18.222Z,18.4
2018-06-18T03:03:17.967Z,18.47
2018-06-18T03:04:18.223Z,18.58
2018-06-18T03:05:18.223Z,18.44
2018-06-18T03:06:18.239Z,18.49
2018-06-18T03:07:18.226Z,18.5
2018-06-18T03:08:17.971Z,18.44
2018-06-18T03:09:17.979Z,18.55
2018-06-18T03:10:18.034Z,18.4
2018-06-18T03:11:18.363Z,18.44
2018-06-18T03:12:17.987Z,18.49
2018-06-18T03:13:17.972Z,18.53
2018-06-18T03:14:17.763Z,18.45
2018-06-18T03:15:18.056Z,18.38
2018-06-18T03:16:18.009Z,18.53
2018-06-18T03:17:17.990Z,18.43
2018-06-18T03:18:17.737Z,18.52
2018-06-18T03:19:18.014Z,18.52
2018-06-18T03:20:18.049Z,18.45
2018-06-18T03:21:18.266Z,18.52
2018-06-18T03:22:17.995Z,18.53
2018-06-18T03:23:18.008Z,18.55
2018-06-18T03:24:17.751Z,18.53
2018-06-18T03:25:18.006Z,18.56
2018-06-18T03:26:17.993Z,18.5
2018-06-18T03:27:17.991Z,18.53
2018-06-18T03:28:18.242Z,18.6
2018-06-18T03:29:18.250Z,18.52
2018-06-18T03:30:18.287Z,18.56
2018-06-18T03:31:18.328Z,18.56
2018-06-18T03:32:18.004Z,18.66
2018-06-18T03:33:17.991Z,18.52
2018-06-18T03:34:18.005Z,18.58
2018-06-18T03:35:17.995Z,18.53
2018-06-18T03:36:18.250Z,18.59
2018-06-18T03:37:18.540Z,18.66
2018-06-18T03:38:18.256Z,18.53
2018-06-18T03:39:18.247Z,18.66
2018-06-18T03:40:18.332Z,18.56
2018-06-18T03:41:18.252Z,18.62
2018-06-18T03:42:18.255Z,18.6
2018-06-18T03:43:18.005Z,18.6
2018-06-18T03:44:18.249Z,18.66
2018-06-18T03:45:18.047Z,18.63
2018-06-18T03:46:18.003Z,18.62
2018-06-18T03:47:17.751Z,18.6
2018-06-18T03:48:18.007Z,18.66
2018-06-18T03:49:18.006Z,18.62
2018-06-18T03:50:18.264Z,18.58
2018-06-18T03:51:18.006Z,18.58
2018-06-18T03:52:18.007Z,18.58
2018-06-18T03:53:17.753Z,18.62
2018-06-18T03:54:17.754Z,18.58
2018-06-18T03:55:17.763Z,18.66
2018-06-18T03:56:18.096Z,18.63
2018-06-18T03:57:17.757Z,18.7
2018-06-18T03:58:18.013Z,18.73
2018-06-18T03:59:18.266Z,18.7
2018-06-18T04:00:17.764Z,18.71
2018-06-18T04:01:17.766Z,18.73
2018-06-18T04:02:18.268Z,18.83
2018-06-18T04:03:18.034Z,18.74
2018-06-18T04:04:18.022Z,18.8
2018-06-18T04:05:18.446Z,18.73
2018-06-18T04:06:18.039Z,18.71
2018-06-18T04:07:17.775Z,18.78
2018-06-18T04:08:18.279Z,18.86
2018-06-18T04:09:18.018Z,18.73
2018-06-18T04:10:18.076Z,18.84
2018-06-18T04:11:18.043Z,18.86
2018-06-18T04:12:18.090Z,18.83
2018-06-18T04:13:18.026Z,18.86
2018-06-18T04:14:18.281Z,18.81
2018-06-18T04:15:18.351Z,18.98
2018-06-18T04:16:18.283Z,19.04
2018-06-18T04:17:18.293Z,19.02
2018-06-18T04:18:18.288Z,19.14
2018-06-18T04:19:18.282Z,19.18
2018-06-18T04:20:18.364Z,19.11
2018-06-18T04:21:17.793Z,19.12
2018-06-18T04:22:18.290Z,19.12
2018-06-18T04:23:18.293Z,19.12
2018-06-18T04:24:18.289Z,19.14
2018-06-18T04:25:18.295Z,19.15
2018-06-18T04:26:18.043Z,19.16
2018-06-18T04:27:18.299Z,19.24
2018-06-18T04:28:18.297Z,19.24
2018-06-18T04:29:18.294Z,19.37
2018-06-18T04:30:18.051Z,19.29
2018-06-18T04:31:18.048Z,19.39
2018-06-18T04:32:17.794Z,19.24
2018-06-18T04:33:18.300Z,19.34
2018-06-18T04:34:18.048Z,19.39
2018-06-18T04:35:18.064Z,19.37
2018-06-18T04:36:17.800Z,19.37
2018-06-18T04:37:18.317Z,19.31
2018-06-18T04:38:18.101Z,19.33
2018-06-18T04:39:18.298Z,19.3
2018-06-18T04:40:18.327Z,19.36
2018-06-18T04:41:18.315Z,19.39
2018-06-18T04:42:18.054Z,19.44
2018-06-18T04:43:18.323Z,19.37
2018-06-18T04:44:17.833Z,19.54
2018-06-18T04:45:18.400Z,19.77
2018-06-18T04:46:18.074Z,19.96
2018-06-18T04:47:18.072Z,20.24
2018-06-18T04:48:18.081Z,20.5
2018-06-18T04:49:17.826Z,20.82
2018-06-18T04:50:18.338Z,21.14
2018-06-18T04:51:18.077Z,21.58
2018-06-18T04:52:18.338Z,22.17
2018-06-18T04:53:18.080Z,22.66
2018-06-18T04:54:17.833Z,23.13
2018-06-18T04:55:18.096Z,23.8
2018-06-18T04:56:18.369Z,24.36
2018-06-18T04:57:18.348Z,24.55
2018-06-18T04:58:18.100Z,24.73
2018-06-18T04:59:18.507Z,24.69
2018-06-18T05:00:18.372Z,24.86
2018-06-18T05:01:18.123Z,24.98
2018-06-18T05:02:18.118Z,24.74
2018-06-18T05:03:18.385Z,24.32
2018-06-18T05:04:18.382Z,23.98
2018-06-18T05:05:18.449Z,23.69
2018-06-18T05:06:18.153Z,23.37
2018-06-18T05:07:18.160Z,22.99
2018-06-18T05:08:17.912Z,22.6
2018-06-18T05:09:19.211Z,22.45
2018-06-18T05:10:18.456Z,22.33
2018-06-18T05:11:18.419Z,22.35
2018-06-18T05:12:18.415Z,22.29
2018-06-18T05:13:18.166Z,22.28
2018-06-18T05:14:18.176Z,22.22
2018-06-18T05:15:18.487Z,22.1
2018-06-18T05:16:18.436Z,21.98
2018-06-18T05:17:18.453Z,21.92
2018-06-18T05:18:18.209Z,21.83
2018-06-18T05:19:18.446Z,21.77
2018-06-18T05:20:18.265Z,21.89
2018-06-18T05:21:18.465Z,21.82
2018-06-18T05:22:18.476Z,21.77
2018-06-18T05:23:18.462Z,21.82
2018-06-18T05:24:18.764Z,21.64
2018-06-18T05:25:18.542Z,21.62
2018-06-18T05:26:18.551Z,21.62
2018-06-18T05:27:17.976Z,21.77
2018-06-18T05:28:18.232Z,21.89
2018-06-18T05:29:18.393Z,21.8
2018-06-18T05:30:18.527Z,21.91
2018-06-18T05:31:18.495Z,21.89
2018-06-18T05:32:18.506Z,21.93
2018-06-18T05:33:18.258Z,22.11
2018-06-18T05:34:18.245Z,22.17
2018-06-18T05:35:18.546Z,22.18
2018-06-18T05:36:18.266Z,22.17
2018-06-18T05:37:18.274Z,22.17
2018-06-18T05:38:18.521Z,22.11
2018-06-18T05:39:18.521Z,21.98
2018-06-18T05:40:18.369Z,22.08
2018-06-18T05:41:18.279Z,22.08
2018-06-18T05:42:18.591Z,22.14
2018-06-18T05:43:18.538Z,22.1
2018-06-18T05:44:18.539Z,22.22
2018-06-18T05:45:18.386Z,22.23
2018-06-18T05:46:18.554Z,22.29
2018-06-18T05:47:18.561Z,22.32
2018-06-18T05:48:18.311Z,22.3
2018-06-18T05:49:18.586Z,22.32
2018-06-18T05:50:18.596Z,22.32
2018-06-18T05:51:18.540Z,22.3
2018-06-18T05:52:18.321Z,22.48
2018-06-18T05:53:18.327Z,22.39
2018-06-18T05:54:18.604Z,22.47
2018-06-18T05:55:18.129Z,22.5
2018-06-18T05:56:18.105Z,22.44
2018-06-18T05:57:18.350Z,22.36
2018-06-18T05:58:18.623Z,22.25
2018-06-18T05:59:18.608Z,22.14
2018-06-18T06:00:18.689Z,22.08
2018-06-18T06:01:18.617Z,22.1
2018-06-18T06:02:18.106Z,21.91
2018-06-18T06:03:18.622Z,21.76
2018-06-18T06:04:18.384Z,21.66
2018-06-18T06:05:18.499Z,21.69
2018-06-18T06:06:18.647Z,21.66
2018-06-18T06:07:18.398Z,21.64
2018-06-18T06:08:18.645Z,21.69
2018-06-18T06:09:18.650Z,21.82
2018-06-18T06:10:18.446Z,21.95
2018-06-18T06:11:18.404Z,21.99
2018-06-18T06:12:18.401Z,22.04
2018-06-18T06:13:18.401Z,21.85
2018-06-18T06:24:00.541Z,22.17
2018-06-18T06:25:00.807Z,22.14
2018-06-18T06:26:00.789Z,22.2
2018-06-18T06:27:00.786Z,22.17
2018-06-18T06:28:00.786Z,22.28
2018-06-18T06:29:00.792Z,22.28
2018-06-18T06:30:01.034Z,22.33
2018-06-18T06:31:01.047Z,22.32
2018-06-18T06:32:01.036Z,22.36
2018-06-18T06:33:00.793Z,22.26
2018-06-18T06:34:01.076Z,22.38
2018-06-18T06:35:00.798Z,22.43
2018-06-18T06:36:00.804Z,22.35
2018-06-18T06:37:00.569Z,22.28
2018-06-18T06:38:00.816Z,22.36
2018-06-18T06:39:01.068Z,22.5
2018-06-18T06:40:01.078Z,22.48
2018-06-18T06:41:00.841Z,22.48
2018-06-18T06:42:00.815Z,22.55
2018-06-18T06:43:00.566Z,22.6
2018-06-18T06:44:00.833Z,22.73
2018-06-18T06:45:00.579Z,22.76
2018-06-18T06:46:00.834Z,22.83
2018-06-18T06:47:01.101Z,22.99
2018-06-18T06:48:00.830Z,23.02
2018-06-18T06:49:01.222Z,22.96
2018-06-18T06:50:00.609Z,22.87
2018-06-18T06:51:00.856Z,22.83
2018-06-18T06:52:00.844Z,22.83
2018-06-18T06:53:00.887Z,22.8
2018-06-18T06:54:01.135Z,22.75
2018-06-18T06:55:00.615Z,22.81
2018-06-18T06:56:00.980Z,22.87
2018-06-18T06:57:00.628Z,22.81
2018-06-18T06:58:00.631Z,22.76
2018-06-18T06:59:01.131Z,22.84
2018-06-18T07:00:01.133Z,22.87
2018-06-18T07:01:01.145Z,22.85
2018-06-18T07:02:00.890Z,22.75
2018-06-18T07:03:00.671Z,22.57
2018-06-18T07:04:00.912Z,22.54
2018-06-18T07:05:01.148Z,22.51
2018-06-18T07:06:00.664Z,22.44
2018-06-18T07:07:01.171Z,22.45
2018-06-18T07:08:01.006Z,22.45
2018-06-18T07:09:01.162Z,22.55
2018-06-18T07:10:01.172Z,22.63
2018-06-18T07:11:00.940Z,22.62
2018-06-18T07:12:00.938Z,22.7
2018-06-18T07:13:01.183Z,22.65
2018-06-18T07:14:00.939Z,22.62
2018-06-18T07:15:01.185Z,22.65
2018-06-18T07:16:01.194Z,22.53
2018-06-18T07:17:00.953Z,22.54
2018-06-18T07:18:00.947Z,22.45
2018-06-18T07:19:01.213Z,22.48
2018-06-18T07:20:00.974Z,22.48
2018-06-18T07:21:00.955Z,22.48
2018-06-18T07:22:00.978Z,22.54
2018-06-18T07:23:01.236Z,22.51
2018-06-18T07:24:00.976Z,22.51
2018-06-18T07:25:01.229Z,22.62
2018-06-18T07:26:01.033Z,22.55
2018-06-18T07:27:01.300Z,22.53
2018-06-18T07:28:00.989Z,22.72
2018-06-18T07:29:00.991Z,22.83
2018-06-18T07:30:01.021Z,22.66
2018-06-18T07:31:01.465Z,22.51
2018-06-18T07:32:01.270Z,22.55
2018-06-18T07:33:01.012Z,22.8
2018-06-18T07:34:00.754Z,23
2018-06-18T07:35:01.274Z,23.02
2018-06-18T07:36:01.039Z,23.17
2018-06-18T07:37:01.272Z,23.21
2018-06-18T07:38:01.041Z,23.17
2018-06-18T07:39:01.031Z,23.18
2018-06-18T07:40:01.030Z,23.1
2018-06-18T07:41:01.036Z,23.17
2018-06-18T07:42:01.039Z,23.2
2018-06-18T07:43:01.065Z,23.32
2018-06-18T07:44:01.306Z,23.37
2018-06-18T07:45:00.797Z,23.46
2018-06-18T07:46:01.335Z,23.65
2018-06-18T07:47:01.063Z,23.76
2018-06-18T07:48:01.088Z,23.88
2018-06-18T07:49:01.097Z,24.02
2018-06-18T07:50:00.835Z,23.96
2018-06-18T07:51:01.347Z,24.01
2018-06-18T07:52:01.338Z,24.02
2018-06-18T07:53:01.083Z,23.93
2018-06-18T07:54:01.105Z,23.96
2018-06-18T07:55:00.843Z,24.11
2018-06-18T07:56:01.105Z,24.33
2018-06-18T07:57:01.369Z,24.57
2018-06-18T07:58:01.193Z,24.84
2018-06-18T07:59:00.855Z,24.78
2018-06-18T08:00:01.375Z,24.98
2018-06-18T08:01:01.377Z,25.01
2018-06-18T08:02:01.376Z,25.08
2018-06-18T08:03:00.900Z,24.96
2018-06-18T08:04:01.487Z,24.91
2018-06-18T08:05:01.398Z,25.01
2018-06-18T08:06:00.893Z,25.03
2018-06-18T08:07:01.409Z,25.16
2018-06-18T08:08:01.172Z,25.21
2018-06-18T08:09:01.171Z,25.22
2018-06-18T08:10:01.368Z,25.47
2018-06-18T08:11:01.171Z,25.4
2018-06-18T08:12:01.434Z,25.38
2018-06-18T08:13:01.190Z,25.47
2018-06-18T08:14:00.940Z,25.63
2018-06-18T08:15:00.989Z,25.63
2018-06-18T08:16:01.199Z,25.81
2018-06-18T08:17:01.470Z,26
2018-06-18T08:18:00.965Z,26.05
2018-06-18T08:19:00.959Z,25.81
2018-06-18T08:20:01.486Z,25.6
2018-06-18T08:21:00.994Z,25.53
2018-06-18T08:22:01.250Z,25.6
2018-06-18T08:23:01.249Z,25.5
2018-06-18T08:24:01.493Z,25.55
2018-06-18T08:25:01.252Z,25.58
2018-06-18T08:26:01.250Z,25.65
2018-06-18T08:27:01.697Z,25.87
2018-06-18T08:28:01.515Z,26.45
2018-06-18T08:29:01.264Z,26.99
2018-06-18T08:30:01.535Z,27.33
2018-06-18T08:31:01.022Z,27.32
2018-06-18T08:32:01.294Z,27.37
2018-06-18T08:33:01.540Z,27.83
2018-06-18T08:34:01.554Z,27.9
2018-06-18T08:35:01.648Z,27.75
2018-06-18T08:36:01.439Z,27.12
2018-06-18T08:37:01.563Z,26.45
2018-06-18T08:38:01.327Z,25.85
2018-06-18T08:39:01.328Z,25.41
2018-06-18T08:40:01.609Z,25.26
2018-06-18T08:41:01.361Z,25.01
2018-06-18T08:42:01.607Z,24.77
2018-06-18T08:43:01.356Z,24.58
2018-06-18T08:44:01.362Z,24.17
2018-06-18T08:45:01.623Z,23.74
2018-06-18T08:46:01.632Z,23.47
2018-06-18T08:47:01.374Z,23.36
2018-06-18T08:48:01.635Z,23.48
2018-06-18T08:49:01.384Z,23.86
2018-06-18T08:50:01.647Z,24.55
2018-06-18T08:51:01.398Z,24.92
2018-06-18T08:52:01.668Z,25.17
2018-06-18T08:53:01.439Z,25.16
2018-06-18T08:54:01.184Z,24.96
2018-06-18T08:55:01.415Z,24.81
2018-06-18T08:56:01.436Z,24.47
2018-06-18T08:57:01.678Z,24.16
2018-06-18T08:58:01.788Z,23.87
2018-06-18T08:59:01.728Z,23.77
2018-06-18T09:00:01.704Z,23.62
2018-06-18T09:01:01.466Z,23.46
2018-06-18T09:02:01.733Z,23.28
2018-06-18T09:03:01.719Z,23.32
2018-06-18T09:04:01.458Z,23.41
2018-06-18T09:05:01.496Z,23.54
2018-06-18T09:06:01.472Z,23.73
2018-06-18T09:07:01.476Z,23.69
2018-06-18T09:08:01.740Z,23.74
2018-06-18T09:09:01.229Z,24.01
2018-06-18T09:10:01.235Z,24.32
2018-06-18T09:11:01.240Z,24.7
2018-06-18T09:12:01.762Z,25.04
2018-06-18T09:13:01.506Z,24.98
2018-06-18T09:14:01.782Z,25.07
2018-06-18T09:15:01.521Z,25.21
2018-06-18T09:16:01.337Z,25.29
2018-06-18T09:17:01.783Z,25.1
2018-06-18T09:18:01.539Z,25.03
2018-06-18T09:19:01.542Z,24.66
2018-06-18T09:20:01.819Z,24.43
2018-06-18T09:21:01.299Z,24.1
2018-06-18T09:22:01.305Z,23.86
2018-06-18T09:23:01.558Z,23.63
2018-06-18T09:24:01.851Z,23.58
2018-06-18T09:25:01.823Z,23.34
2018-06-18T09:26:01.614Z,23.21
2018-06-18T09:27:01.861Z,23.15
2018-06-18T09:28:01.572Z,23
2018-06-18T09:29:01.576Z,22.99
2018-06-18T09:30:01.840Z,23.18
2018-06-18T09:31:01.595Z,23.44
2018-06-18T09:32:01.830Z,23.76
2018-06-18T09:33:01.604Z,24.01
2018-06-18T09:34:01.617Z,24.23
2018-06-18T09:35:01.607Z,24.6
2018-06-18T09:36:01.619Z,24.84
2018-06-18T09:37:01.892Z,24.8
2018-06-18T09:38:01.380Z,24.77
2018-06-18T09:39:01.667Z,24.84
2018-06-18T09:40:01.889Z,24.68
2018-06-18T09:41:01.904Z,24.84
2018-06-18T09:42:01.638Z,25.06
2018-06-18T09:43:01.661Z,25.13
2018-06-18T09:44:01.652Z,25.04
2018-06-18T09:45:01.908Z,25.03
2018-06-18T09:46:01.921Z,24.91
2018-06-18T09:47:01.926Z,24.68
2018-06-18T09:48:01.442Z,24.5
2018-06-18T09:49:01.675Z,24.42
2018-06-18T09:50:01.933Z,24.21
2018-06-18T09:51:01.428Z,23.96
2018-06-18T09:52:01.697Z,23.86
2018-06-18T09:53:01.714Z,23.77
2018-06-18T09:54:01.715Z,23.74
2018-06-18T09:55:01.960Z,23.77
2018-06-18T09:56:01.722Z,23.96
2018-06-18T09:57:01.732Z,23.8
2018-06-18T09:58:01.467Z,23.77
2018-06-18T09:59:01.973Z,23.65
2018-06-18T10:00:01.980Z,23.58
2018-06-18T10:01:01.749Z,23.5
2018-06-18T10:02:01.991Z,23.55
2018-06-18T10:03:01.991Z,23.69
2018-06-18T10:04:01.999Z,23.78
2018-06-18T10:05:01.751Z,23.87
2018-06-18T10:06:01.752Z,23.99
2018-06-18T10:07:01.762Z,24.16
2018-06-18T10:08:01.756Z,24.3
2018-06-18T10:09:01.510Z,24.42
2018-06-18T10:10:02.025Z,24.65
2018-06-18T10:11:02.023Z,24.84
2018-06-18T10:12:02.025Z,25.04
2018-06-18T10:13:01.773Z,25.26
2018-06-18T10:14:01.783Z,25.32
2018-06-18T10:15:02.047Z,25.36
2018-06-18T10:16:01.807Z,25.54
2018-06-18T10:17:01.807Z,25.62
2018-06-18T10:18:01.795Z,25.9
2018-06-18T10:19:01.817Z,26.06
2018-06-18T10:20:02.054Z,26.06
2018-06-18T10:21:01.821Z,25.78
2018-06-18T10:22:02.066Z,25.58
2018-06-18T10:53:32.239Z,24.47
2018-06-18T10:54:31.714Z,24.45
2018-06-18T10:55:31.964Z,24.6
2018-06-18T10:56:32.214Z,24.85
2018-06-18T10:57:31.963Z,25.03
2018-06-18T10:58:31.989Z,25.17
2018-06-18T10:59:32.223Z,25.32
2018-06-18T11:00:31.998Z,25.48
2018-06-18T11:01:32.240Z,25.5
2018-06-18T11:02:31.981Z,25.53
2018-06-18T11:03:32.248Z,25.5
2018-06-18T11:04:32.302Z,25.47
2018-06-18T11:05:31.843Z,25.38
2018-06-18T11:06:32.245Z,25.23
2018-06-18T11:07:31.997Z,25.23
2018-06-18T11:08:31.994Z,25.16
2018-06-18T11:09:32.021Z,25.07
2018-06-18T11:10:32.256Z,25.1
2018-06-18T11:11:32.018Z,24.99
2018-06-18T11:12:31.760Z,24.8
2018-06-18T11:13:32.286Z,24.66
2018-06-18T11:14:32.051Z,24.43
2018-06-18T11:15:32.375Z,24.29
2018-06-18T11:16:32.650Z,24.32
2018-06-18T11:17:32.739Z,24.3
2018-06-18T11:18:32.317Z,24.48
2018-06-18T11:19:32.296Z,24.39
2018-06-18T11:20:32.338Z,24.24
2018-06-18T11:21:32.060Z,24.24
2018-06-18T11:22:32.317Z,24.33
2018-06-18T11:23:31.863Z,24.28
2018-06-18T11:24:32.211Z,24.2
2018-06-18T11:25:32.078Z,24.33
2018-06-18T11:26:32.923Z,24.51
2018-06-18T11:27:32.104Z,24.78
2018-06-18T11:28:32.768Z,24.85
2018-06-18T11:29:32.333Z,24.8
2018-06-18T11:30:32.343Z,24.84
2018-06-18T11:31:32.349Z,24.81
2018-06-18T11:32:31.859Z,24.7
2018-06-18T11:33:32.122Z,24.74
2018-06-18T11:34:32.352Z,24.84
2018-06-18T11:35:32.151Z,24.92
2018-06-18T11:36:31.916Z,24.95
2018-06-18T11:37:32.388Z,25.08
2018-06-18T11:38:32.137Z,25.08
2018-06-18T11:39:32.302Z,25.13
2018-06-18T11:40:32.175Z,25.26
2018-06-18T11:41:32.138Z,25.33
2018-06-18T11:42:32.170Z,25.62
2018-06-18T11:43:32.691Z,25.65
2018-06-18T11:44:31.894Z,25.65
2018-06-18T11:45:32.410Z,25.73
2018-06-18T11:46:32.160Z,25.8
2018-06-18T11:47:32.426Z,25.69
2018-06-18T11:48:32.455Z,25.65
2018-06-18T11:49:32.188Z,25.48
2018-06-18T11:50:32.447Z,25.4
2018-06-18T11:51:32.443Z,25.28
2018-06-18T11:52:32.277Z,25.31
2018-06-18T11:53:32.265Z,25.07
2018-06-18T11:54:32.452Z,24.99
2018-06-18T11:55:32.459Z,25.1
2018-06-18T11:56:31.948Z,25.14
2018-06-18T11:57:32.471Z,25.06
2018-06-18T11:58:32.740Z,25.04
2018-06-18T11:59:32.229Z,24.86
2018-06-18T12:00:32.252Z,24.95
2018-06-18T12:01:32.692Z,25.11
2018-06-18T12:02:32.234Z,25.33
2018-06-18T12:03:32.261Z,25.44
2018-06-18T12:04:32.519Z,25.59
2018-06-18T12:05:32.252Z,25.55
2018-06-18T12:06:32.012Z,25.48
2018-06-18T12:07:32.524Z,25.36
2018-06-18T12:08:32.272Z,25.25
2018-06-18T12:09:32.383Z,25.28
2018-06-18T12:10:32.468Z,25.32
2018-06-18T12:11:32.277Z,25.26
2018-06-18T12:12:32.566Z,25.38
2018-06-18T12:13:32.592Z,25.31
2018-06-18T12:14:32.578Z,25.41
2018-06-18T12:15:32.039Z,25.59
2018-06-18T12:16:32.294Z,25.68
2018-06-18T12:17:32.624Z,25.83
2018-06-18T12:18:32.319Z,25.9
2018-06-18T12:19:32.315Z,25.83
2018-06-18T12:20:32.323Z,25.91
2018-06-18T12:21:32.099Z,25.93
2018-06-18T12:22:32.583Z,25.93
2018-06-18T12:23:32.110Z,25.77
2018-06-18T12:24:32.594Z,25.63
2018-06-18T12:25:32.096Z,25.48
2018-06-18T12:26:32.609Z,25.48
2018-06-18T12:27:32.385Z,25.41
2018-06-18T12:28:32.641Z,25.46
2018-06-18T12:29:32.361Z,25.58
2018-06-18T12:30:32.674Z,25.73
2018-06-18T12:31:32.366Z,25.68
2018-06-18T12:32:32.635Z,25.69
2018-06-18T12:33:32.643Z,25.55
2018-06-18T12:34:32.431Z,25.59
2018-06-18T12:35:32.405Z,25.4
2018-06-18T12:36:32.651Z,25.25
2018-06-18T12:37:32.397Z,25.41
2018-06-18T12:38:32.425Z,25.44
2018-06-18T12:39:32.657Z,25.33
2018-06-18T12:40:32.412Z,25.44
2018-06-18T12:41:32.978Z,25.68
2018-06-18T12:42:32.443Z,25.7
2018-06-18T12:43:32.444Z,25.99
2018-06-18T12:44:32.427Z,25.93
2018-06-18T12:45:32.702Z,25.99
2018-06-18T12:46:32.234Z,25.85
2018-06-18T12:47:32.698Z,25.75
2018-06-18T12:48:32.721Z,25.63
2018-06-18T12:49:32.443Z,25.63
2018-06-18T12:50:32.703Z,25.46
2018-06-18T12:51:32.478Z,25.47
2018-06-18T12:52:32.713Z,25.5
2018-06-18T12:53:34.106Z,25.32
2018-06-18T12:54:32.476Z,25.4
2018-06-18T12:55:32.502Z,25.54
2018-06-18T12:56:32.734Z,25.58
2018-06-18T12:57:32.486Z,25.54
2018-06-18T12:58:33.314Z,25.51
2018-06-18T12:59:32.506Z,25.54
2018-06-18T13:00:32.255Z,25.48
2018-06-18T13:01:32.779Z,25.47
2018-06-18T13:02:32.764Z,25.44
2018-06-18T13:03:33.032Z,25.29
2018-06-18T13:04:32.795Z,25.21
2018-06-18T13:05:32.542Z,25.03
2018-06-18T13:06:32.796Z,24.98
2018-06-18T13:07:32.540Z,24.99
2018-06-18T13:08:32.790Z,24.98
2018-06-18T13:09:32.845Z,25.08
2018-06-18T13:10:32.302Z,25.1
2018-06-18T13:11:32.549Z,25.17
2018-06-18T13:12:32.301Z,25.14
2018-06-18T13:13:32.585Z,25.22
2018-06-18T13:14:32.567Z,25.29
2018-06-18T13:15:32.818Z,25.48
2018-06-18T13:16:32.821Z,25.6
2018-06-18T13:17:32.824Z,25.75
2018-06-18T13:18:32.332Z,26
2018-06-18T13:19:32.840Z,26.29
2018-06-18T13:20:32.869Z,26.41
2018-06-18T13:21:32.848Z,26.53
2018-06-18T13:22:32.866Z,26.55
2018-06-18T13:23:32.853Z,26.37
2018-06-18T13:24:32.867Z,26.25
2018-06-18T13:25:32.897Z,26.22
2018-06-18T13:26:32.868Z,26.28
2018-06-18T13:27:33.096Z,26.23
2018-06-18T13:28:32.890Z,26.13
2018-06-18T13:29:32.884Z,26.06
2018-06-18T13:30:33.023Z,25.93
2018-06-18T13:31:32.890Z,25.91
2018-06-18T13:32:32.643Z,25.81
2018-06-18T13:33:32.659Z,25.73
2018-06-18T13:34:32.412Z,25.65
2018-06-18T13:35:32.918Z,25.58